Weather observations for the past three days for
Oxnard, Oxnard Airport
Metric (Imperial)
Date Time (pdt) Wind (kph) Vis. (km) Weather Sky Cond. Temperature (ºC) Relative Humidity Wind Chill (°C) Heat Index (°C) Pressure Precipitation (cm)
Air Dwpt 6 hour altimeter (cm) sea level (mb) 1 hr 3 hr 6 hr
Max. Min.
07 14:51 W 19 16.09 Fair CLR 18.9 12.2 65% 76.12 1014.9
07 13:51 W 22 16.09 Fair CLR 18.9 12.8 68% 76.17 1015.6
07 12:51 W 17 16.09 Fair CLR 18.9 12.8 68% 76.23 1016.0
07 11:51 W 15 16.09 Fair CLR 18.9 13.3 70% 76.23 1016.2
07 10:51 W 13 14.48 Fair CLR 18.3 12.8 18.3 11.7 70% 76.23 1016.2
07 09:51 W 11 14.48 Fair CLR 17.2 12.8 76% 76.23 1016.2
07 08:51 NW 9 12.87 Fair CLR 16.7 12.2 75% 76.25 1016.5
07 07:51 Calm 14.48 Fair CLR 15 11.7 81% 76.25 1016.5
07 06:51 Calm 11.27 Fair CLR 12.2 10.6 90% 76.23 1016.2
07 05:51 Calm 14.48 Fair CLR 12.2 10.6 90% 76.2 1015.7
07 04:51 NE 7 16.09 Fair CLR 12.2 10.6 14.4 12.2 90% 76.2 1015.7
07 03:51 Calm 16.09 Fair CLR 13.3 11.1 87% 76.2 1015.8
07 02:51 N 6 16.09 Fair CLR 13.3 11.1 87% 76.23 1016.1
07 01:51 Calm 11.27 Fair CLR 13.9 12.2 90% 76.25 1016.6
07 00:51 Calm 14.48 Fair CLR 14.4 12.2 87% 76.28 1016.8
06 23:51 Calm 14.48 Fair CLR 14.4 12.2 87% 76.28 1016.8
06 22:51 W 6 12.87 Fair CLR 13.9 12.2 17.8 13.9 90% 76.3 1017.0
06 21:51 Calm 14.48 Fair CLR 15 12.8 87% 76.3 1017.0
06 20:51 W 6 14.48 Fair CLR 15 12.8 87% 76.25 1016.5
06 19:51 W 15 12.87 Fair CLR 15 12.8 87% 76.2 1015.8
06 18:51 W 22 14.48 Fair CLR 16.1 12.8 81% 76.2 1015.8
06 17:51 W 19 16.09 Fair CLR 16.7 12.8 78% 76.2 1015.9
06 16:51 W 20 16.09 Fair CLR 17.8 12.2 18.9 17.8 70% 76.2 1015.9
06 15:51 W 22 16.09 Fair CLR 18.3 11.1 63% 76.25 1016.4
06 14:51 W 20 16.09 Fair CLR 18.3 12.8 70% 76.33 1017.3
06 13:51 SW 15 16.09 Fair CLR 18.3 12.2 68% 76.35 1017.7
06 12:51 SW 17 16.09 Fair CLR 18.3 12.2 68% 76.38 1018.1
06 11:51 SW 15 16.09 Fair CLR 18.3 11.7 66% 76.4 1018.3
06 10:51 SW 17 16.09 Fair CLR 18.3 11.1 18.9 11.7 63% 76.4 1018.6
06 09:51 S 9 16.09 A Few Clouds FEW021 17.8 11.7 68% 76.4 1018.3
06 08:51 SW 7 16.09 Fair CLR 16.7 11.1 70% 76.38 1018.3
06 07:51 NE 11 16.09 Fair CLR 14.4 8.9 70% 76.38 1018.2
06 06:51 NE 7 16.09 Fair CLR 12.2 8.9 80% 76.35 1017.9
06 05:51 NE 9 16.09 Fair CLR 11.7 8.9 83% 76.33 1017.6
06 04:51 NE 11 16.09 Fair CLR 11.7 8.9 14.4 11.7 83% 76.3 1017.2
06 03:51 NE 9 16.09 Fair CLR 11.7 9.4 86% 76.28 1017.0
06 02:51 NE 11 16.09 Fair CLR 12.2 10 87% 76.28 1016.8
06 01:51 NE 11 16.09 Fair CLR 12.8 10 83% 76.3 1017.2
06 00:51 NE 11 16.09 Fair CLR 12.8 10.6 87% 76.3 1017.2
05 23:51 E 9 16.09 A Few Clouds FEW011 13.3 10.6 84% 76.28 1016.8
05 22:51 Calm 16.09 Fair CLR 13.9 11.7 17.2 13.9 87% 76.25 1016.3
05 21:51 SW 6 16.09 Fair CLR 14.4 11.7 84% 76.2 1015.8
05 20:51 S 9 16.09 Fair CLR 15 11.7 81% 76.15 1015.1
05 19:51 SW 13 16.09 Fair CLR 15.6 11.7 78% 76.1 1014.3
05 18:51 W 13 16.09 Fair CLR 16.1 11.1 72% 76.05 1013.9
05 17:51 W 30 16.09 Mostly Cloudy BKN095 17.2 11.1 68% 76.05 1013.6
05 16:51 SW 19 16.09 Mostly Cloudy BKN095 16.1 10.6 18.9 16.1 70% 76.05 1014.0
05 15:51 W 28 16.09 Mostly Cloudy BKN110 17.2 11.1 68% 76.05 1013.7
05 14:51 W 30 G 39 16.09 Mostly Cloudy FEW070 BKN100 18.3 10.6 61% 76.1 1014.4
05 13:51 W 28 16.09 A Few Clouds FEW100 18.9 11.1 61% 76.1 1014.5
05 12:51 W 28 16.09 Fair CLR 18.3 10.6 61% 76.1 1014.6
05 11:51 W 26 16.09 Fair CLR 17.2 10 63% 76.12 1014.8
05 10:51 W 15 16.09 Fair CLR 17.2 7.8 17.8 11.7 54% 76.12 1014.6
05 09:51 W 17 16.09 Mostly Cloudy BKN090 16.7 8.9 60% 76.07 1014.1
05 08:51 W 7 16.09 Mostly Cloudy BKN080 BKN095 15.6 9.4 67% 76.05 1013.9
05 07:51 Vrbl 6 16.09 Overcast OVC090 13.9 10 78% 76.05 1013.8
05 06:51 Calm 16.09 A Few Clouds FEW090 12.8 9.4 80% 76.02 1013.6
05 05:51 Calm 16.09 A Few Clouds FEW090 12.2 10 87% 76.02 1013.3
05 04:51 Calm 16.09 Mostly Cloudy BKN090 12.8 10 14.4 12.2 83% 76.02 1013.3
05 03:51 Calm 16.09 Fair CLR 12.8 10 83% 76.02 1013.4
05 02:51 Calm 16.09 Mostly Cloudy BKN080 13.3 11.1 87% 76.02 1013.5
05 01:51 W 7 16.09 Overcast OVC080 14.4 11.1 81% 76.07 1014.0
05 00:51 W 13 16.09 Overcast OVC075 14.4 11.1 81% 76.1 1014.4
04 23:51 W 13 16.09 Overcast OVC060 14.4 11.1 81% 76.1 1014.4
04 22:51 W 13 16.09 Overcast OVC075 14.4 10.6 17.2 13.9 78% 76.12 1014.6
04 21:51 W 15 16.09 Partly Cloudy SCT075 14.4 10 75% 76.12 1014.8
04 20:51 W 17 16.09 Overcast BKN033 BKN045 OVC075 15 11.1 78% 76.15 1014.9
04 19:51 W 9 16.09 Overcast FEW035 OVC080 15 10.6 75% 76.1 1014.4
04 18:51 SW 15 16.09 Overcast FEW015 FEW033 OVC085 15.6 11.7 78% 76.1 1014.5
04 17:51 W 17 16.09 Overcast BKN029 OVC075 16.7 11.1 70% 76.12 1014.9
04 16:51 W 15 16.09 Overcast SCT021 BKN026 OVC090 17.2 11.1 18.9 16.7 68% 76.12 1014.7
04 15:51 W 17 16.09 Mostly Cloudy SCT020 BKN090 17.8 10.6 63% 76.12 1014.7
Date Time (pdt) Wind (kph) Vis. (km) Weather Sky Cond. Air Dwpt Max. Min. Relative Humidity Wind Chill (°C) Heat Index (°C) altimeter (cm) sea level (mb) 1 hr 3 hr 6 hr
6 hour
Temperature (ºC) Pressure Precipitation (cm)